Time;durP1;ratioP1;P1;durP2;ratioP2;P2;SDS_P1;SDS_P2;PMS_P1;PMS_P2;Temp;Humidity;BMP_temperature;BMP_pressure;BME280_temperature;BME280_humidity;BME280_pressure;Samples;Min_cycle;Max_cycle;Signal;HPM_P1;HPM_P2
2021/06/07 00:00:32;;;;;;;23.43;19.13;;;;;;;;;;5147709;27;20450;-79
2021/06/07 00:02:59;;;;;;;23.53;19.77;;;;;;;;;;5146384;27;20532;-79
2021/06/07 00:05:26;;;;;;;24.80;18.87;;;;;;;;;;5147633;27;20585;-80
2021/06/07 00:07:53;;;;;;;22.90;19.87;;;;;;;;;;5147923;27;20457;-80
2021/06/07 00:10:22;;;;;;;24.77;21.20;;;;;;;;;;5146719;27;20485;-80
2021/06/07 00:12:49;;;;;;;24.57;20.60;;;;;;;;;;5147476;27;20457;-79
2021/06/07 00:15:18;;;;;;;29.97;21.77;;;;;;;;;;5146712;27;20562;-80
2021/06/07 00:17:45;;;;;;;22.30;19.93;;;;;;;;;;5147121;27;20566;-79
2021/06/07 00:20:14;;;;;;;21.20;18.90;;;;;;;;;;5147183;27;20453;-79
2021/06/07 00:22:41;;;;;;;25.87;20.40;;;;;;;;;;5147215;27;20460;-79
2021/06/07 00:25:10;;;;;;;26.67;20.60;;;;;;;;;;5147423;27;20543;-79
2021/06/07 00:27:40;;;;;;;27.50;20.77;;;;;;;;;;5148914;27;20556;-80
2021/06/07 00:30:07;;;;;;;33.60;22.23;;;;;;;;;;5146305;27;20491;-79
2021/06/07 00:32:34;;;;;;;27.97;22.97;;;;;;;;;;5147706;27;20461;-79
2021/06/07 00:35:02;;;;;;;30.70;21.47;;;;;;;;;;5147898;27;20485;-80
2021/06/07 00:37:29;;;;;;;29.73;20.97;;;;;;;;;;5147616;27;20870;-79
2021/06/07 00:39:56;;;;;;;33.20;21.07;;;;;;;;;;5147955;27;20461;-80
2021/06/07 00:42:23;;;;;;;33.07;24.03;;;;;;;;;;5147260;27;20486;-79
2021/06/07 00:44:52;;;;;;;31.03;23.30;;;;;;;;;;5147654;27;20486;-79
2021/06/07 00:47:22;;;;;;;35.43;24.53;;;;;;;;;;5148036;27;20469;-80
2021/06/07 00:49:49;;;;;;;29.00;21.37;;;;;;;;;;5147612;27;20537;-80
2021/06/07 00:52:16;;;;;;;32.83;22.23;;;;;;;;;;5147852;27;20917;-80
2021/06/07 00:54:44;;;;;;;33.27;23.37;;;;;;;;;;5144345;27;20865;-80
2021/06/07 00:57:11;;;;;;;34.37;23.03;;;;;;;;;;5147721;27;20456;-80
2021/06/07 00:59:38;;;;;;;34.90;24.40;;;;;;;;;;5147396;27;20477;-79
2021/06/07 01:02:07;;;;;;;33.33;23.13;;;;;;;;;;5145489;27;20457;-79
2021/06/07 01:04:34;;;;;;;34.37;23.13;;;;;;;;;;5146474;27;20561;-79
2021/06/07 01:07:02;;;;;;;27.83;22.80;;;;;;;;;;5145850;27;20665;-79
2021/06/07 01:09:29;;;;;;;31.03;22.70;;;;;;;;;;5146188;27;20862;-80
2021/06/07 01:11:56;;;;;;;34.83;22.50;;;;;;;;;;5145907;27;20816;-79
2021/06/07 01:14:23;;;;;;;33.20;23.60;;;;;;;;;;5145818;27;20474;-79
2021/06/07 01:16:51;;;;;;;35.60;24.80;;;;;;;;;;5146125;27;20697;-80
2021/06/07 01:19:19;;;;;;;28.87;22.57;;;;;;;;;;5145685;27;20464;-79
2021/06/07 01:21:47;;;;;;;31.20;22.37;;;;;;;;;;5146048;27;20442;-80
2021/06/07 01:24:16;;;;;;;30.70;23.23;;;;;;;;;;5146499;27;20457;-80
2021/06/07 01:26:43;;;;;;;32.60;22.57;;;;;;;;;;5145486;27;20450;-80
2021/06/07 01:29:10;;;;;;;30.43;22.93;;;;;;;;;;5146542;27;20458;-80
2021/06/07 01:31:38;;;;;;;29.00;23.40;;;;;;;;;;5145353;27;20453;-80
2021/06/07 01:34:05;;;;;;;30.00;21.53;;;;;;;;;;5144421;27;20472;-80
2021/06/07 01:36:32;;;;;;;30.07;22.90;;;;;;;;;;5146106;27;20536;-80
2021/06/07 01:38:59;;;;;;;24.07;20.83;;;;;;;;;;5145327;27;20538;-80
2021/06/07 01:41:28;;;;;;;27.67;20.90;;;;;;;;;;5146209;27;20673;-80
2021/06/07 01:43:55;;;;;;;34.37;23.23;;;;;;;;;;5146088;27;20544;-80
2021/06/07 01:46:22;;;;;;;32.60;22.80;;;;;;;;;;5144873;27;20557;-80
2021/06/07 01:48:50;;;;;;;31.30;23.23;;;;;;;;;;5145707;27;20455;-80
2021/06/07 01:51:17;;;;;;;28.83;21.73;;;;;;;;;;5145149;27;20556;-79
2021/06/07 01:53:46;;;;;;;28.07;21.77;;;;;;;;;;5145746;27;20450;-80
2021/06/07 01:56:13;;;;;;;30.10;21.60;;;;;;;;;;5145022;27;20472;-80
2021/06/07 01:58:42;;;;;;;29.03;21.97;;;;;;;;;;5144382;27;20454;-79
2021/06/07 02:01:10;;;;;;;27.60;21.30;;;;;;;;;;5144916;27;20505;-80
2021/06/07 02:03:37;;;;;;;32.43;23.47;;;;;;;;;;5146036;27;20454;-79
2021/06/07 02:06:06;;;;;;;27.17;22.77;;;;;;;;;;5145380;27;20487;-80
2021/06/07 02:08:34;;;;;;;33.90;24.20;;;;;;;;;;5145298;27;20503;-79
2021/06/07 02:11:02;;;;;;;30.80;23.60;;;;;;;;;;5145501;27;20511;-80
2021/06/07 02:13:30;;;;;;;29.03;22.73;;;;;;;;;;5144383;27;20446;-80
2021/06/07 02:15:59;;;;;;;28.93;22.87;;;;;;;;;;5145641;27;20453;-80
2021/06/07 02:18:27;;;;;;;32.87;22.40;;;;;;;;;;5144396;27;20477;-79
2021/06/07 02:20:54;;;;;;;31.07;22.93;;;;;;;;;;5145137;27;20462;-80
2021/06/07 02:23:21;;;;;;;40.33;25.60;;;;;;;;;;5145085;27;20484;-79
2021/06/07 02:25:49;;;;;;;29.00;23.30;;;;;;;;;;5145723;27;20485;-78
2021/06/07 02:28:17;;;;;;;34.13;27.37;;;;;;;;;;5146529;27;20541;-78
2021/06/07 02:30:46;;;;;;;30.70;23.47;;;;;;;;;;5144992;27;20450;-80
2021/06/07 02:33:15;;;;;;;31.87;24.07;;;;;;;;;;5145967;27;20862;-80
2021/06/07 02:35:42;;;;;;;34.57;24.40;;;;;;;;;;5145637;27;20526;-80
2021/06/07 02:38:09;;;;;;;33.30;23.80;;;;;;;;;;5146386;27;20549;-79
2021/06/07 02:40:37;;;;;;;27.67;23.43;;;;;;;;;;5145421;27;20533;-80
2021/06/07 02:43:05;;;;;;;32.57;23.67;;;;;;;;;;5145580;27;20477;-80
2021/06/07 02:45:32;;;;;;;31.47;23.90;;;;;;;;;;5149142;27;20488;-79
2021/06/07 02:48:00;;;;;;;31.63;25.17;;;;;;;;;;5149184;27;20464;-80
2021/06/07 02:50:31;;;;;;;30.30;24.10;;;;;;;;;;5149843;27;20450;-80
2021/06/07 02:52:58;;;;;;;27.23;23.77;;;;;;;;;;5149369;27;20458;-80
2021/06/07 02:55:26;;;;;;;29.70;22.50;;;;;;;;;;5150010;27;20458;-80
2021/06/07 02:57:55;;;;;;;27.80;23.20;;;;;;;;;;5148985;27;20476;-79
2021/06/07 03:00:24;;;;;;;31.90;24.10;;;;;;;;;;5148675;27;20816;-79
2021/06/07 03:02:51;;;;;;;27.33;22.10;;;;;;;;;;5149879;27;20532;-80
2021/06/07 03:05:19;;;;;;;30.50;22.83;;;;;;;;;;5149661;27;20509;-79
2021/06/07 03:07:47;;;;;;;50.40;24.67;;;;;;;;;;5149229;27;20526;-80
2021/06/07 03:10:15;;;;;;;30.23;24.07;;;;;;;;;;5150131;27;20465;-79
2021/06/07 03:12:42;;;;;;;31.20;25.50;;;;;;;;;;5149080;27;20481;-80
2021/06/07 03:15:10;;;;;;;27.03;23.20;;;;;;;;;;5150692;27;20513;-79
2021/06/07 03:17:38;;;;;;;29.23;22.60;;;;;;;;;;5149238;27;20453;-79
2021/06/07 03:20:06;;;;;;;27.93;22.17;;;;;;;;;;5149491;27;20626;-79
2021/06/07 03:22:33;;;;;;;29.27;22.53;;;;;;;;;;5150815;27;20791;-79
2021/06/07 03:25:02;;;;;;;30.57;24.40;;;;;;;;;;5150765;27;20576;-79
2021/06/07 03:27:30;;;;;;;26.90;21.93;;;;;;;;;;5150261;27;20528;-79
2021/06/07 03:29:57;;;;;;;30.30;24.30;;;;;;;;;;5153546;27;20818;-78
2021/06/07 03:32:24;;;;;;;35.40;25.53;;;;;;;;;;5153017;27;20461;-81
2021/06/07 03:34:51;;;;;;;30.53;23.63;;;;;;;;;;5152020;27;20508;-79
2021/06/07 03:37:18;;;;;;;31.67;23.43;;;;;;;;;;5152219;27;20510;-79
2021/06/07 03:39:46;;;;;;;36.63;23.97;;;;;;;;;;5153346;27;20457;-80
2021/06/07 03:42:14;;;;;;;31.90;22.93;;;;;;;;;;5153111;27;20478;-80
2021/06/07 03:44:41;;;;;;;31.20;24.53;;;;;;;;;;5152385;27;20519;-79
2021/06/07 03:47:09;;;;;;;33.50;25.50;;;;;;;;;;5151674;27;20549;-80
2021/06/07 03:49:36;;;;;;;35.20;22.20;;;;;;;;;;5152452;27;20462;-79
2021/06/07 03:52:03;;;;;;;30.13;23.87;;;;;;;;;;5151191;27;20506;-80
2021/06/07 03:54:30;;;;;;;32.50;24.17;;;;;;;;;;5152210;27;20477;-80
2021/06/07 03:56:58;;;;;;;30.27;22.60;;;;;;;;;;5150811;27;20454;-80
2021/06/07 03:59:26;;;;;;;31.87;25.30;;;;;;;;;;5152364;27;20475;-77
2021/06/07 04:01:54;;;;;;;50.40;26.80;;;;;;;;;;5152904;27;20473;-80
2021/06/07 04:04:22;;;;;;;35.03;24.97;;;;;;;;;;5152591;27;20476;-79
2021/06/07 04:06:49;;;;;;;35.27;23.70;;;;;;;;;;5152514;27;20450;-79
2021/06/07 04:09:16;;;;;;;33.50;25.97;;;;;;;;;;5152706;27;20462;-80
2021/06/07 04:11:43;;;;;;;29.00;24.30;;;;;;;;;;5153195;27;20464;-79
2021/06/07 04:14:11;;;;;;;31.33;24.47;;;;;;;;;;5153691;27;20901;-79
2021/06/07 04:16:39;;;;;;;30.60;24.10;;;;;;;;;;5150830;27;20913;-80
2021/06/07 04:19:06;;;;;;;31.40;24.17;;;;;;;;;;5148857;27;20458;-80
2021/06/07 04:21:34;;;;;;;32.70;26.07;;;;;;;;;;5150275;27;20602;-79
2021/06/07 04:24:01;;;;;;;36.50;25.53;;;;;;;;;;5153961;27;20596;-80
2021/06/07 04:26:28;;;;;;;32.87;25.17;;;;;;;;;;5150136;27;20508;-80
2021/06/07 04:28:55;;;;;;;35.27;26.17;;;;;;;;;;5159719;27;20461;-80
2021/06/07 04:31:22;;;;;;;35.60;25.00;;;;;;;;;;5168434;27;20445;-80
2021/06/07 04:33:51;;;;;;;32.50;24.77;;;;;;;;;;5167953;27;20875;-80
2021/06/07 04:36:18;;;;;;;36.33;25.67;;;;;;;;;;5167389;27;20872;-80
2021/06/07 04:38:45;;;;;;;31.90;23.90;;;;;;;;;;5166415;27;20564;-80
2021/06/07 04:41:13;;;;;;;33.17;24.30;;;;;;;;;;5167062;27;20477;-80
2021/06/07 04:43:40;;;;;;;30.07;23.43;;;;;;;;;;5166755;27;20457;-80
2021/06/07 04:46:07;;;;;;;33.10;24.57;;;;;;;;;;5167381;27;20564;-78
2021/06/07 04:48:34;;;;;;;33.17;24.77;;;;;;;;;;5166239;27;20481;-80
2021/06/07 04:51:03;;;;;;;33.00;26.07;;;;;;;;;;5164965;27;20853;-80
2021/06/07 04:53:30;;;;;;;38.00;28.53;;;;;;;;;;5166527;27;20449;-80
2021/06/07 04:55:58;;;;;;;39.93;28.80;;;;;;;;;;5166621;27;20903;-80
2021/06/07 04:58:27;;;;;;;39.10;27.23;;;;;;;;;;5166280;27;20690;-80
2021/06/07 05:00:55;;;;;;;39.00;27.43;;;;;;;;;;5164839;27;20464;-80
2021/06/07 05:03:23;;;;;;;39.20;28.20;;;;;;;;;;5165297;27;20551;-80
2021/06/07 05:05:51;;;;;;;39.73;27.77;;;;;;;;;;5165849;27;20660;-80
2021/06/07 05:08:19;;;;;;;45.93;27.90;;;;;;;;;;5163617;27;20576;-80
2021/06/07 05:10:46;;;;;;;37.90;27.73;;;;;;;;;;5165146;27;20618;-80
2021/06/07 05:13:14;;;;;;;42.77;30.77;;;;;;;;;;5164248;27;20590;-80
2021/06/07 05:15:41;;;;;;;39.33;27.73;;;;;;;;;;5164089;27;20619;-80
2021/06/07 05:18:08;;;;;;;45.53;28.90;;;;;;;;;;5164874;27;20504;-80
2021/06/07 05:20:36;;;;;;;45.27;29.23;;;;;;;;;;5167148;27;20573;-80
2021/06/07 05:23:03;;;;;;;45.40;29.77;;;;;;;;;;5167368;27;20481;-81
2021/06/07 05:25:32;;;;;;;44.47;32.20;;;;;;;;;;5167345;27;20503;-80
2021/06/07 05:28:00;;;;;;;44.07;29.57;;;;;;;;;;5166183;27;20936;-80
2021/06/07 05:30:29;;;;;;;44.83;29.70;;;;;;;;;;5167925;27;20512;-80
2021/06/07 05:32:56;;;;;;;45.67;31.70;;;;;;;;;;5165802;27;20467;-80
2021/06/07 05:35:25;;;;;;;52.27;32.20;;;;;;;;;;5163591;27;20484;-80
2021/06/07 05:37:52;;;;;;;47.17;29.77;;;;;;;;;;5165052;27;20857;-79
2021/06/07 05:40:20;;;;;;;45.30;31.73;;;;;;;;;;5164162;27;20471;-79
2021/06/07 05:42:49;;;;;;;38.70;28.73;;;;;;;;;;5164389;27;20483;-80
2021/06/07 05:45:19;;;;;;;43.00;27.87;;;;;;;;;;5166744;27;20473;-80
2021/06/07 05:47:49;;;;;;;48.97;30.97;;;;;;;;;;5168584;27;20481;-79
2021/06/07 05:50:18;;;;;;;48.07;30.83;;;;;;;;;;5166107;27;20473;-80
2021/06/07 05:52:48;;;;;;;41.33;27.90;;;;;;;;;;5167029;27;20453;-80
2021/06/07 05:55:16;;;;;;;46.80;31.00;;;;;;;;;;5166214;27;20461;-80
2021/06/07 05:57:43;;;;;;;43.77;30.87;;;;;;;;;;5169278;27;20472;-80
2021/06/07 06:00:13;;;;;;;42.87;28.27;;;;;;;;;;5166174;27;20488;-80
2021/06/07 06:02:41;;;;;;;42.60;29.10;;;;;;;;;;5166544;27;20448;-80
2021/06/07 06:05:09;;;;;;;42.53;28.47;;;;;;;;;;5165330;27;20483;-79
2021/06/07 06:07:36;;;;;;;38.53;25.97;;;;;;;;;;5163685;27;20501;-80
2021/06/07 06:10:03;;;;;;;41.47;25.57;;;;;;;;;;5149347;27;20528;-80
2021/06/07 06:12:31;;;;;;;43.40;27.77;;;;;;;;;;5163836;27;20578;-79
2021/06/07 06:14:58;;;;;;;41.77;27.90;;;;;;;;;;5164322;27;20530;-80
2021/06/07 06:17:27;;;;;;;41.70;27.80;;;;;;;;;;5165496;27;20465;-82
2021/06/07 06:19:54;;;;;;;40.53;26.40;;;;;;;;;;5166141;27;20484;-81
2021/06/07 06:22:21;;;;;;;35.73;26.00;;;;;;;;;;5165746;27;20484;-81
2021/06/07 06:24:48;;;;;;;35.77;24.23;;;;;;;;;;5165306;27;20547;-81
2021/06/07 06:27:16;;;;;;;40.77;28.80;;;;;;;;;;5166551;27;20537;-81
2021/06/07 06:29:43;;;;;;;35.23;24.87;;;;;;;;;;5154482;27;20461;-82
2021/06/07 06:32:10;;;;;;;33.70;23.70;;;;;;;;;;5166109;27;20455;-80
2021/06/07 06:34:39;;;;;;;31.47;22.93;;;;;;;;;;5167792;27;20824;-80
2021/06/07 06:37:07;;;;;;;37.53;24.43;;;;;;;;;;5169600;27;20452;-81
2021/06/07 06:39:34;;;;;;;34.47;24.60;;;;;;;;;;5168065;27;20457;-80
2021/06/07 06:42:02;;;;;;;33.07;23.00;;;;;;;;;;5167589;27;20453;-80
2021/06/07 06:44:29;;;;;;;33.10;22.57;;;;;;;;;;5159981;27;20817;-80
2021/06/07 06:46:57;;;;;;;33.20;23.90;;;;;;;;;;5170137;27;20477;-79
2021/06/07 06:49:24;;;;;;;31.33;21.10;;;;;;;;;;5170039;27;20516;-81
2021/06/07 06:51:54;;;;;;;31.07;21.60;;;;;;;;;;5171139;27;20459;-80
2021/06/07 06:54:22;;;;;;;30.53;21.60;;;;;;;;;;5169899;27;20876;-80
2021/06/07 06:56:50;;;;;;;32.97;21.37;;;;;;;;;;5169490;27;20452;-80
2021/06/07 06:59:18;;;;;;;31.80;22.37;;;;;;;;;;5163535;27;20469;-80
2021/06/07 07:01:45;;;;;;;28.63;20.37;;;;;;;;;;5173383;27;20486;-81
2021/06/07 07:04:12;;;;;;;33.30;21.93;;;;;;;;;;5172714;27;20475;-81
2021/06/07 07:06:47;;;;;;;34.10;21.80;;;;;;;;;;5173814;27;20484;-80
2021/06/07 07:09:31;;;;;;;27.10;20.27;;;;;;;;;;5168436;27;20456;-79
2021/06/07 07:11:59;;;;;;;30.20;21.97;;;;;;;;;;5168289;27;20915;-79
2021/06/07 07:14:33;;;;;;;26.77;19.90;;;;;;;;;;5172939;27;20464;-80
2021/06/07 07:17:00;;;;;;;30.70;21.77;;;;;;;;;;5146593;27;20486;-79
2021/06/07 07:19:37;;;;;;;30.37;22.87;;;;;;;;;;5145899;27;20450;-80
2021/06/07 07:22:04;;;;;;;31.17;22.07;;;;;;;;;;5146638;27;20462;-80
2021/06/07 07:24:33;;;;;;;32.10;22.33;;;;;;;;;;5165998;27;20449;-79
2021/06/07 07:27:00;;;;;;;27.03;20.87;;;;;;;;;;5152930;27;20509;-80
2021/06/07 07:29:31;;;;;;;29.73;20.70;;;;;;;;;;5152953;27;20543;-79
2021/06/07 07:31:59;;;;;;;25.47;18.90;;;;;;;;;;5156941;27;20462;-80
2021/06/07 07:34:27;;;;;;;26.87;20.53;;;;;;;;;;5159335;27;20833;-80
2021/06/07 07:36:54;;;;;;;27.60;20.47;;;;;;;;;;5175528;27;20703;-79
2021/06/07 07:39:21;;;;;;;26.20;19.63;;;;;;;;;;5161772;27;20446;-79
2021/06/07 07:41:50;;;;;;;21.47;17.70;;;;;;;;;;5148506;27;20465;-79
2021/06/07 07:44:17;;;;;;;25.40;19.20;;;;;;;;;;5166616;27;20441;-79
2021/06/07 07:46:44;;;;;;;24.30;18.80;;;;;;;;;;5151927;27;20489;-80
2021/06/07 07:49:11;;;;;;;22.43;17.77;;;;;;;;;;5150460;27;20454;-79
2021/06/07 07:51:39;;;;;;;25.33;16.70;;;;;;;;;;5165190;27;20450;-80
2021/06/07 07:54:07;;;;;;;21.10;16.50;;;;;;;;;;5150402;27;20465;-79
2021/06/07 07:56:40;;;;;;;22.63;16.27;;;;;;;;;;5160965;27;20457;-80
2021/06/07 07:59:10;;;;;;;24.47;17.23;;;;;;;;;;5153220;27;20441;-80
2021/06/07 08:01:44;;;;;;;25.17;17.40;;;;;;;;;;5170629;27;20468;-80
2021/06/07 08:04:12;;;;;;;21.33;16.50;;;;;;;;;;5166923;27;20464;-79
2021/06/07 08:06:40;;;;;;;23.53;17.23;;;;;;;;;;5155846;27;20486;-78
2021/06/07 08:09:08;;;;;;;19.37;15.20;;;;;;;;;;5148985;27;20445;-80
2021/06/07 08:11:36;;;;;;;21.03;16.60;;;;;;;;;;5180532;27;20458;-80
2021/06/07 08:14:31;;;;;;;18.17;15.50;;;;;;;;;;5170611;27;20467;-80
2021/06/07 08:17:00;;;;;;;15.20;13.33;;;;;;;;;;5156401;27;20465;-80
2021/06/07 08:19:28;;;;;;;18.67;13.57;;;;;;;;;;5156137;27;20452;-80
2021/06/07 08:24:47;;;;;;;15.10;12.70;;;;;;;;;;5161000;27;20453;-82
2021/06/07 08:27:15;;;;;;;15.80;12.90;;;;;;;;;;5141260;27;20451;-82
2021/06/07 08:29:42;;;;;;;17.37;14.53;;;;;;;;;;5166685;27;20460;-82
2021/06/07 08:32:11;;;;;;;23.43;14.13;;;;;;;;;;5189945;27;20459;-81
2021/06/07 08:34:46;;;;;;;17.13;12.83;;;;;;;;;;5164600;27;20474;-80
2021/06/07 08:37:14;;;;;;;14.13;12.30;;;;;;;;;;5158678;27;20457;-79
2021/06/07 08:39:42;;;;;;;15.50;12.57;;;;;;;;;;5185294;27;20503;-79
2021/06/07 08:42:10;;;;;;;16.17;13.30;;;;;;;;;;5149126;27;20533;-78
2021/06/07 08:44:37;;;;;;;16.40;13.93;;;;;;;;;;5165672;27;20546;-79
2021/06/07 08:47:05;;;;;;;15.30;11.40;;;;;;;;;;5175233;27;20485;-78
2021/06/07 08:49:35;;;;;;;14.57;11.77;;;;;;;;;;5154891;27;20445;-80
2021/06/07 08:52:02;;;;;;;15.30;13.10;;;;;;;;;;5152048;27;20451;-80
2021/06/07 08:54:30;;;;;;;16.23;13.43;;;;;;;;;;5151889;27;20533;-79
2021/06/07 08:56:57;;;;;;;15.33;13.73;;;;;;;;;;5163245;27;20472;-80
2021/06/07 08:59:27;;;;;;;19.23;13.20;;;;;;;;;;5186127;27;20445;-80
2021/06/07 09:01:56;;;;;;;14.47;11.20;;;;;;;;;;5153976;27;20541;-80
2021/06/07 09:04:31;;;;;;;15.70;11.10;;;;;;;;;;5166925;27;20513;-80
2021/06/07 09:07:04;;;;;;;16.60;13.07;;;;;;;;;;5162246;27;20491;-80
2021/06/07 09:09:32;;;;;;;13.53;11.93;;;;;;;;;;5175094;27;20455;-81
2021/06/07 09:12:04;;;;;;;14.33;11.70;;;;;;;;;;5157692;27;20469;-80
2021/06/07 09:14:37;;;;;;;13.70;11.90;;;;;;;;;;5160935;27;20453;-80
2021/06/07 09:17:16;;;;;;;15.50;12.07;;;;;;;;;;5162564;27;20472;-80
2021/06/07 09:19:47;;;;;;;16.03;12.43;;;;;;;;;;5146095;27;20601;-79
2021/06/07 09:22:29;;;;;;;18.40;12.77;;;;;;;;;;5168785;27;20513;-79
2021/06/07 09:25:06;;;;;;;19.07;14.20;;;;;;;;;;5180609;27;20459;-81
2021/06/07 09:27:36;;;;;;;15.47;12.60;;;;;;;;;;5162492;27;20469;-82
2021/06/07 09:30:24;;;;;;;14.70;12.10;;;;;;;;;;5174012;27;20536;-80
2021/06/07 09:32:51;;;;;;;16.03;13.80;;;;;;;;;;5160221;27;20465;-81
2021/06/07 09:35:25;;;;;;;13.97;12.37;;;;;;;;;;5157193;27;20875;-79
2021/06/07 09:38:08;;;;;;;19.07;14.90;;;;;;;;;;5144274;27;20457;-80
2021/06/07 09:40:39;;;;;;;18.93;12.90;;;;;;;;;;5150081;27;20451;-78
2021/06/07 09:43:11;;;;;;;17.33;14.20;;;;;;;;;;5166649;27;20449;-80
2021/06/07 09:45:43;;;;;;;21.33;14.67;;;;;;;;;;5148416;27;20773;-79
2021/06/07 09:48:12;;;;;;;13.93;12.40;;;;;;;;;;5145257;27;20738;-80
2021/06/07 09:50:59;;;;;;;14.03;12.50;;;;;;;;;;5140585;27;20487;-81
2021/06/07 09:53:46;;;;;;;14.17;12.57;;;;;;;;;;5156851;27;20525;-81
2021/06/07 09:56:15;;;;;;;12.63;11.30;;;;;;;;;;5150229;27;20449;-80
2021/06/07 09:58:46;;;;;;;14.90;11.60;;;;;;;;;;5153601;27;20473;-82
2021/06/07 10:04:27;;;;;;;14.03;11.40;;;;;;;;;;5152368;27;20458;-79
2021/06/07 10:07:10;;;;;;;13.00;11.00;;;;;;;;;;5159087;27;20477;-79
2021/06/07 10:09:41;;;;;;;14.43;10.93;;;;;;;;;;5158750;27;20472;-82
2021/06/07 10:12:24;;;;;;;12.77;10.77;;;;;;;;;;5152591;27;20500;-81
2021/06/07 10:14:52;;;;;;;13.33;11.47;;;;;;;;;;5156260;27;20552;-82
2021/06/07 10:17:20;;;;;;;14.43;12.90;;;;;;;;;;5152107;27;20465;-79
2021/06/07 10:19:59;;;;;;;14.43;11.93;;;;;;;;;;5161804;27;20449;-79
2021/06/07 10:22:26;;;;;;;14.80;10.87;;;;;;;;;;5145771;27;20460;-80
2021/06/07 10:27:59;;;;;;;17.77;12.70;;;;;;;;;;5136795;27;20759;-82
2021/06/07 10:30:29;;;;;;;16.10;14.40;;;;;;;;;;5160533;27;20485;-81
2021/06/07 10:32:57;;;;;;;12.90;10.63;;;;;;;;;;5146882;27;20463;-80
2021/06/07 10:35:29;;;;;;;12.23;9.80;;;;;;;;;;5157238;27;20895;-81
2021/06/07 10:38:09;;;;;;;14.20;11.97;;;;;;;;;;5162549;27;20796;-81
2021/06/07 10:40:39;;;;;;;13.13;10.13;;;;;;;;;;5153702;27;20456;-80
2021/06/07 10:43:07;;;;;;;12.97;10.70;;;;;;;;;;5156816;27;20554;-78
2021/06/07 10:45:36;;;;;;;14.00;10.77;;;;;;;;;;5134345;27;20492;-82
2021/06/07 10:48:05;;;;;;;11.50;9.73;;;;;;;;;;5144583;27;20506;-82
2021/06/07 10:50:34;;;;;;;14.50;11.00;;;;;;;;;;5150033;27;20450;-80
2021/06/07 10:53:04;;;;;;;11.60;10.40;;;;;;;;;;5158102;27;20469;-81
2021/06/07 10:55:32;;;;;;;11.27;9.33;;;;;;;;;;5162160;27;20839;-80
2021/06/07 10:58:03;;;;;;;15.87;12.07;;;;;;;;;;5159760;27;20464;-81
2021/06/07 11:00:32;;;;;;;11.63;9.80;;;;;;;;;;5174751;27;20778;-83
2021/06/07 11:03:03;;;;;;;12.53;10.90;;;;;;;;;;5180545;27;20475;-83
2021/06/07 11:05:31;;;;;;;12.63;10.13;;;;;;;;;;5155648;27;20481;-81
2021/06/07 11:08:07;;;;;;;13.90;9.77;;;;;;;;;;5143222;27;20653;-82
2021/06/07 11:10:38;;;;;;;11.30;9.33;;;;;;;;;;5157118;27;20460;-80
2021/06/07 11:13:09;;;;;;;10.90;9.80;;;;;;;;;;5148632;27;20489;-82
2021/06/07 11:15:38;;;;;;;10.27;8.40;;;;;;;;;;5146975;27;20449;-82
2021/06/07 11:18:27;;;;;;;10.33;9.03;;;;;;;;;;5144011;27;20468;-80
2021/06/07 11:20:56;;;;;;;9.70;8.70;;;;;;;;;;5151359;27;20441;-78
2021/06/07 11:23:30;;;;;;;10.00;9.00;;;;;;;;;;5146766;27;20461;-78
2021/06/07 11:25:58;;;;;;;10.13;9.13;;;;;;;;;;5143310;27;20527;-79
2021/06/07 11:28:44;;;;;;;10.13;8.47;;;;;;;;;;5152102;27;20597;-79
2021/06/07 11:31:26;;;;;;;9.70;8.07;;;;;;;;;;5153030;27;20449;-80
2021/06/07 11:33:54;;;;;;;10.23;9.20;;;;;;;;;;5136641;27;20475;-78
2021/06/07 11:36:38;;;;;;;8.70;7.70;;;;;;;;;;5142667;27;20509;-79
2021/06/07 11:39:06;;;;;;;10.33;9.13;;;;;;;;;;5145004;27;20453;-82
2021/06/07 11:41:45;;;;;;;9.67;8.77;;;;;;;;;;5163777;27;20477;-80
2021/06/07 11:44:34;;;;;;;10.47;9.33;;;;;;;;;;5157481;27;20710;-79
2021/06/07 11:47:07;;;;;;;8.60;7.80;;;;;;;;;;5162257;27;20496;-80
2021/06/07 11:49:35;;;;;;;9.27;8.43;;;;;;;;;;5148574;27;20455;-79
2021/06/07 11:52:10;;;;;;;10.63;9.53;;;;;;;;;;5167548;27;20441;-78
2021/06/07 11:57:53;;;;;;;10.27;9.27;;;;;;;;;;5161039;27;20458;-77
2021/06/07 12:00:21;;;;;;;10.87;9.87;;;;;;;;;;5145322;27;21056;-79
2021/06/07 12:02:50;;;;;;;9.67;8.67;;;;;;;;;;5163326;27;20476;-81
2021/06/07 12:05:23;;;;;;;10.80;9.70;;;;;;;;;;5161242;27;20548;-78
2021/06/07 12:08:09;;;;;;;9.60;8.70;;;;;;;;;;5168554;27;20444;-78
2021/06/07 12:10:39;;;;;;;9.53;8.53;;;;;;;;;;5165130;27;20461;-79
2021/06/07 12:13:17;;;;;;;11.23;10.07;;;;;;;;;;5153540;27;20892;-80
2021/06/07 12:15:44;;;;;;;11.17;10.07;;;;;;;;;;5167656;27;20461;-80
2021/06/07 12:18:17;;;;;;;11.27;10.17;;;;;;;;;;5165830;27;20460;-79
2021/06/07 12:20:45;;;;;;;10.90;9.80;;;;;;;;;;5145102;27;20447;-78
2021/06/07 12:23:12;;;;;;;10.73;9.70;;;;;;;;;;5159678;27;20553;-79
2021/06/07 12:28:16;;;;;;;10.33;9.33;;;;;;;;;;5140357;27;20981;-78
2021/06/07 12:28:31;;;;;;;11.30;8.63;;;;;;;;;;5150347;27;20437;-77
2021/06/07 12:30:59;;;;;;;12.60;8.80;;;;;;;;;;5165296;27;20444;-79
2021/06/07 12:33:35;;;;;;;11.10;9.77;;;;;;;;;;5162544;27;20531;-78
2021/06/07 12:36:04;;;;;;;8.83;7.93;;;;;;;;;;5164334;27;20544;-79
2021/06/07 12:38:32;;;;;;;10.60;8.80;;;;;;;;;;5167752;27;20457;-79
2021/06/07 12:41:00;;;;;;;9.90;8.90;;;;;;;;;;5148663;27;20445;-78
2021/06/07 12:43:33;;;;;;;9.70;8.80;;;;;;;;;;5147589;27;20522;-78
2021/06/07 12:48:56;;;;;;;11.10;8.70;;;;;;;;;;5152880;27;20441;-79
2021/06/07 12:51:24;;;;;;;9.87;8.97;;;;;;;;;;5162978;27;20536;-78
2021/06/07 12:53:55;;;;;;;9.63;7.20;;;;;;;;;;5157221;27;20561;-79
2021/06/07 12:56:23;;;;;;;11.23;8.67;;;;;;;;;;5156046;27;20441;-79
2021/06/07 12:58:51;;;;;;;9.60;8.47;;;;;;;;;;5158251;27;20466;-80
2021/06/07 13:01:20;;;;;;;9.20;8.30;;;;;;;;;;5160238;27;20445;-79
2021/06/07 13:03:53;;;;;;;10.40;8.70;;;;;;;;;;5165030;27;20460;-78
2021/06/07 13:06:22;;;;;;;10.53;8.57;;;;;;;;;;5164239;27;20476;-78
2021/06/07 13:08:50;;;;;;;10.03;9.13;;;;;;;;;;5163861;27;20461;-78
2021/06/07 13:11:19;;;;;;;10.90;8.40;;;;;;;;;;5161896;27;20488;-78
2021/06/07 13:13:46;;;;;;;9.60;8.70;;;;;;;;;;5157293;27;20493;-82
2021/06/07 13:16:15;;;;;;;10.33;9.23;;;;;;;;;;5168178;27;20535;-79
2021/06/07 13:18:57;;;;;;;9.17;8.30;;;;;;;;;;5164753;27;20903;-80
2021/06/07 13:21:32;;;;;;;10.10;9.10;;;;;;;;;;5165379;27;20451;-79
2021/06/07 13:24:00;;;;;;;10.40;9.30;;;;;;;;;;5146982;27;20457;-79
2021/06/07 13:26:42;;;;;;;10.13;8.63;;;;;;;;;;5155367;27;20487;-80
2021/06/07 13:29:17;;;;;;;9.40;8.50;;;;;;;;;;5160811;27;20446;-80
2021/06/07 13:32:01;;;;;;;9.40;8.40;;;;;;;;;;5146822;27;20524;-80
2021/06/07 13:34:29;;;;;;;9.20;8.30;;;;;;;;;;5166794;27;20485;-80
2021/06/07 13:37:06;;;;;;;8.67;7.77;;;;;;;;;;5165532;27;20499;-78
2021/06/07 13:39:34;;;;;;;10.50;9.37;;;;;;;;;;5156751;27;20460;-80
2021/06/07 13:42:01;;;;;;;10.60;9.37;;;;;;;;;;5161559;27;20493;-81
2021/06/07 13:44:28;;;;;;;9.73;8.83;;;;;;;;;;5168883;27;20448;-79
2021/06/07 13:47:03;;;;;;;10.67;9.50;;;;;;;;;;5169569;27;20476;-80
2021/06/07 13:49:30;;;;;;;10.03;8.13;;;;;;;;;;5164079;27;20459;-79
2021/06/07 13:51:57;;;;;;;9.53;8.37;;;;;;;;;;5167856;27;20448;-80
2021/06/07 13:54:26;;;;;;;11.60;10.07;;;;;;;;;;5162887;27;20457;-79
2021/06/07 13:57:04;;;;;;;9.43;8.53;;;;;;;;;;5168216;27;20468;-81
2021/06/07 13:59:32;;;;;;;10.40;9.40;;;;;;;;;;5167288;27;20464;-79
2021/06/07 14:01:59;;;;;;;12.07;10.33;;;;;;;;;;5161729;27;20759;-80
2021/06/07 14:04:26;;;;;;;9.57;8.63;;;;;;;;;;5158943;27;20457;-78
2021/06/07 14:06:53;;;;;;;10.37;9.30;;;;;;;;;;5147858;27;20476;-81
2021/06/07 14:09:21;;;;;;;11.27;10.13;;;;;;;;;;5161102;27;20561;-81
2021/06/07 14:11:51;;;;;;;10.87;9.77;;;;;;;;;;5142538;27;20514;-79
2021/06/07 14:14:18;;;;;;;12.47;10.60;;;;;;;;;;5161074;27;20525;-81
2021/06/07 14:16:45;;;;;;;10.00;8.17;;;;;;;;;;5161795;27;20989;-81
2021/06/07 14:19:13;;;;;;;10.10;9.10;;;;;;;;;;5159031;27;20560;-79
2021/06/07 14:24:37;;;;;;;10.00;8.60;;;;;;;;;;5160706;27;20481;-79
2021/06/07 14:24:39;;;;;;;9.00;8.13;;;;;;;;;;5140807;27;20487;-79
2021/06/07 14:27:09;;;;;;;9.30;7.50;;;;;;;;;;5163801;27;20480;-80
2021/06/07 14:29:38;;;;;;;10.47;9.20;;;;;;;;;;5163930;27;20502;-79
2021/06/07 14:32:06;;;;;;;10.03;8.93;;;;;;;;;;5150498;27;20713;-79
2021/06/07 14:34:33;;;;;;;10.63;9.53;;;;;;;;;;5163230;27;20496;-80
2021/06/07 14:37:00;;;;;;;10.00;9.00;;;;;;;;;;5161290;27;20449;-79
2021/06/07 14:39:28;;;;;;;9.43;8.53;;;;;;;;;;5150801;27;20824;-80
2021/06/07 14:41:55;;;;;;;9.17;8.27;;;;;;;;;;5164239;27;20449;-79
2021/06/07 14:44:24;;;;;;;8.40;7.60;;;;;;;;;;5152955;27;20458;-80
2021/06/07 14:46:52;;;;;;;9.57;8.67;;;;;;;;;;5156976;27;20507;-80
2021/06/07 14:49:19;;;;;;;13.60;8.97;;;;;;;;;;5155014;27;20457;-80